sensor_id;sensor_type;location;lat;lon;timestamp;pressure;altitude;pressure_sealevel;temperature;humidity
42727;BME280;28372;56.832;60.658;2023-01-30T00:00:59;97561.94;;;-0.32;46.18
42727;BME280;28372;56.832;60.658;2023-01-30T00:03:27;97555.66;;;-0.36;46.47
42727;BME280;28372;56.832;60.658;2023-01-30T00:05:55;97564.72;;;-0.37;46.51
42727;BME280;28372;56.832;60.658;2023-01-30T00:08:22;97553.44;;;-0.43;46.60
42727;BME280;28372;56.832;60.658;2023-01-30T00:10:50;97547.00;;;-0.50;47.08
42727;BME280;28372;56.832;60.658;2023-01-30T00:13:18;97556.72;;;-0.46;47.33
42727;BME280;28372;56.832;60.658;2023-01-30T00:15:46;97557.97;;;-0.43;47.34
42727;BME280;28372;56.832;60.658;2023-01-30T00:18:14;97554.38;;;-0.47;46.70
42727;BME280;28372;56.832;60.658;2023-01-30T00:20:42;97557.03;;;-0.70;47.87
42727;BME280;28372;56.832;60.658;2023-01-30T00:23:09;97556.59;;;-0.63;48.06
42727;BME280;28372;56.832;60.658;2023-01-30T00:25:37;97553.28;;;-0.69;48.42
42727;BME280;28372;56.832;60.658;2023-01-30T00:28:04;97553.47;;;-0.65;48.66
42727;BME280;28372;56.832;60.658;2023-01-30T00:30:32;97550.94;;;-0.71;48.24
42727;BME280;28372;56.832;60.658;2023-01-30T00:33:00;97546.13;;;-0.68;47.98
42727;BME280;28372;56.832;60.658;2023-01-30T00:35:27;97545.66;;;-0.62;47.10
42727;BME280;28372;56.832;60.658;2023-01-30T00:37:58;97546.13;;;-0.68;47.21
42727;BME280;28372;56.832;60.658;2023-01-30T00:40:28;97546.50;;;-0.84;47.71
42727;BME280;28372;56.832;60.658;2023-01-30T00:42:56;97539.28;;;-0.83;47.50
42727;BME280;28372;56.832;60.658;2023-01-30T00:45:43;97536.41;;;-0.96;48.59
42727;BME280;28372;56.832;60.658;2023-01-30T00:48:30;97518.97;;;-1.11;48.03
42727;BME280;28372;56.832;60.658;2023-01-30T00:50:58;97533.09;;;-1.01;48.44
42727;BME280;28372;56.832;60.658;2023-01-30T00:53:26;97525.72;;;-1.05;47.39
42727;BME280;28372;56.832;60.658;2023-01-30T00:55:54;97543.63;;;-0.88;46.91
42727;BME280;28372;56.832;60.658;2023-01-30T00:58:22;97541.19;;;-0.84;46.55
42727;BME280;28372;56.832;60.658;2023-01-30T01:00:51;97551.19;;;-0.81;46.64
42727;BME280;28372;56.832;60.658;2023-01-30T01:03:19;97537.56;;;-0.88;46.67
42727;BME280;28372;56.832;60.658;2023-01-30T01:05:47;97534.19;;;-0.80;47.33
42727;BME280;28372;56.832;60.658;2023-01-30T01:08:15;97537.19;;;-0.73;46.31
42727;BME280;28372;56.832;60.658;2023-01-30T01:10:43;97532.28;;;-0.79;45.91
42727;BME280;28372;56.832;60.658;2023-01-30T01:13:10;97539.00;;;-0.82;47.49
42727;BME280;28372;56.832;60.658;2023-01-30T01:15:38;97538.25;;;-0.74;46.73
42727;BME280;28372;56.832;60.658;2023-01-30T01:18:05;97532.97;;;-0.74;46.66
42727;BME280;28372;56.832;60.658;2023-01-30T01:20:33;97518.09;;;-0.75;46.39
42727;BME280;28372;56.832;60.658;2023-01-30T01:23:02;97525.75;;;-0.73;46.13
42727;BME280;28372;56.832;60.658;2023-01-30T01:25:29;97528.97;;;-0.85;46.29
42727;BME280;28372;56.832;60.658;2023-01-30T01:27:59;97530.97;;;-0.91;46.73
42727;BME280;28372;56.832;60.658;2023-01-30T01:30:26;97530.25;;;-0.82;46.47
42727;BME280;28372;56.832;60.658;2023-01-30T01:32:55;97525.19;;;-0.70;45.60
42727;BME280;28372;56.832;60.658;2023-01-30T01:35:23;97529.09;;;-0.90;46.66
42727;BME280;28372;56.832;60.658;2023-01-30T01:37:54;97532.97;;;-0.96;46.86
42727;BME280;28372;56.832;60.658;2023-01-30T01:40:22;97530.84;;;-1.08;46.90
42727;BME280;28372;56.832;60.658;2023-01-30T01:43:20;97520.31;;;-0.99;45.51
42727;BME280;28372;56.832;60.658;2023-01-30T01:46:16;97524.50;;;-0.98;45.37
42727;BME280;28372;56.832;60.658;2023-01-30T01:48:51;97525.16;;;-1.15;45.80
42727;BME280;28372;56.832;60.658;2023-01-30T01:51:29;97524.50;;;-1.21;45.63
42727;BME280;28372;56.832;60.658;2023-01-30T01:54:05;97520.41;;;-1.27;45.30
42727;BME280;28372;56.832;60.658;2023-01-30T01:56:38;97514.06;;;-1.40;45.51
42727;BME280;28372;56.832;60.658;2023-01-30T01:59:27;97514.38;;;-1.42;45.55
42727;BME280;28372;56.832;60.658;2023-01-30T02:02:00;97504.53;;;-1.41;44.64
42727;BME280;28372;56.832;60.658;2023-01-30T02:04:30;97493.63;;;-1.40;44.68
42727;BME280;28372;56.832;60.658;2023-01-30T02:07:19;97504.56;;;-1.55;44.66
42727;BME280;28372;56.832;60.658;2023-01-30T02:09:49;97511.66;;;-1.64;44.93
42727;BME280;28372;56.832;60.658;2023-01-30T02:12:16;97499.53;;;-1.93;45.21
42727;BME280;28372;56.832;60.658;2023-01-30T02:14:46;97499.25;;;-2.05;46.05
42727;BME280;28372;56.832;60.658;2023-01-30T02:17:34;97505.63;;;-2.07;44.95
42727;BME280;28372;56.832;60.658;2023-01-30T02:31:42;97506.41;;;-2.34;44.77
42727;BME280;28372;56.832;60.658;2023-01-30T02:34:34;97514.34;;;-2.34;43.74
42727;BME280;28372;56.832;60.658;2023-01-30T02:40:48;97520.44;;;-2.33;44.64
42727;BME280;28372;56.832;60.658;2023-01-30T02:46:53;97512.97;;;-2.45;44.68
42727;BME280;28372;56.832;60.658;2023-01-30T02:52:30;97511.28;;;-2.55;43.62
42727;BME280;28372;56.832;60.658;2023-01-30T02:54:59;97512.44;;;-2.61;43.67
42727;BME280;28372;56.832;60.658;2023-01-30T02:57:26;97498.72;;;-2.63;43.46
42727;BME280;28372;56.832;60.658;2023-01-30T03:00:00;97503.13;;;-2.72;43.70
42727;BME280;28372;56.832;60.658;2023-01-30T03:05:52;97491.34;;;-2.80;43.49
42727;BME280;28372;56.832;60.658;2023-01-30T03:11:09;97515.00;;;-2.56;43.72
42727;BME280;28372;56.832;60.658;2023-01-30T03:13:43;97511.47;;;-2.65;43.10
42727;BME280;28372;56.832;60.658;2023-01-30T03:16:38;97502.06;;;-2.58;43.73
42727;BME280;28372;56.832;60.658;2023-01-30T03:19:11;97501.56;;;-2.73;42.96
42727;BME280;28372;56.832;60.658;2023-01-30T03:21:41;97502.13;;;-2.77;43.44
42727;BME280;28372;56.832;60.658;2023-01-30T03:24:12;97509.94;;;-2.85;43.63
42727;BME280;28372;56.832;60.658;2023-01-30T03:26:48;97511.03;;;-2.86;43.48
42727;BME280;28372;56.832;60.658;2023-01-30T03:29:19;97506.56;;;-3.05;43.86
42727;BME280;28372;56.832;60.658;2023-01-30T03:31:46;97507.25;;;-2.99;43.63
42727;BME280;28372;56.832;60.658;2023-01-30T03:34:14;97508.66;;;-2.88;43.19
42727;BME280;28372;56.832;60.658;2023-01-30T03:36:42;97502.59;;;-2.88;43.45
42727;BME280;28372;56.832;60.658;2023-01-30T03:39:09;97511.38;;;-3.07;43.17
42727;BME280;28372;56.832;60.658;2023-01-30T03:41:37;97506.63;;;-3.10;43.59
42727;BME280;28372;56.832;60.658;2023-01-30T03:44:05;97513.31;;;-3.13;43.72
42727;BME280;28372;56.832;60.658;2023-01-30T03:46:33;97511.50;;;-3.17;43.65
42727;BME280;28372;56.832;60.658;2023-01-30T03:49:00;97516.91;;;-3.22;43.80
42727;BME280;28372;56.832;60.658;2023-01-30T03:51:28;97508.59;;;-3.35;43.50
42727;BME280;28372;56.832;60.658;2023-01-30T03:53:56;97513.91;;;-3.35;44.12
42727;BME280;28372;56.832;60.658;2023-01-30T03:56:23;97512.53;;;-3.32;43.53
42727;BME280;28372;56.832;60.658;2023-01-30T03:58:52;97527.75;;;-3.24;43.93
42727;BME280;28372;56.832;60.658;2023-01-30T04:01:28;97518.13;;;-3.34;43.41
42727;BME280;28372;56.832;60.658;2023-01-30T04:03:56;97529.25;;;-3.37;43.92
42727;BME280;28372;56.832;60.658;2023-01-30T04:06:25;97512.03;;;-3.34;43.78
42727;BME280;28372;56.832;60.658;2023-01-30T04:08:53;97522.59;;;-3.34;44.46
42727;BME280;28372;56.832;60.658;2023-01-30T04:11:33;97520.25;;;-3.17;44.34
42727;BME280;28372;56.832;60.658;2023-01-30T04:14:01;97520.72;;;-3.15;45.18
42727;BME280;28372;56.832;60.658;2023-01-30T04:16:28;97531.66;;;-3.02;44.77
42727;BME280;28372;56.832;60.658;2023-01-30T04:19:14;97526.34;;;-2.83;44.64
42727;BME280;28372;56.832;60.658;2023-01-30T04:21:42;97537.94;;;-2.65;43.18
42727;BME280;28372;56.832;60.658;2023-01-30T04:24:11;97535.03;;;-2.50;43.36
42727;BME280;28372;56.832;60.658;2023-01-30T04:26:38;97533.50;;;-2.37;42.42
42727;BME280;28372;56.832;60.658;2023-01-30T04:29:07;97540.94;;;-2.25;42.51
42727;BME280;28372;56.832;60.658;2023-01-30T04:31:36;97535.56;;;-2.34;41.48
42727;BME280;28372;56.832;60.658;2023-01-30T04:34:11;97539.66;;;-2.28;41.97
42727;BME280;28372;56.832;60.658;2023-01-30T04:36:38;97534.88;;;-2.26;41.42
42727;BME280;28372;56.832;60.658;2023-01-30T04:39:06;97539.97;;;-2.29;41.48
42727;BME280;28372;56.832;60.658;2023-01-30T04:41:34;97538.97;;;-2.33;41.25
42727;BME280;28372;56.832;60.658;2023-01-30T04:44:03;97538.88;;;-2.28;41.37
42727;BME280;28372;56.832;60.658;2023-01-30T04:46:39;97547.44;;;-2.31;40.83
42727;BME280;28372;56.832;60.658;2023-01-30T04:49:09;97537.59;;;-2.31;41.31
42727;BME280;28372;56.832;60.658;2023-01-30T04:51:36;97527.78;;;-2.44;41.21
42727;BME280;28372;56.832;60.658;2023-01-30T04:54:04;97536.22;;;-2.42;41.19
42727;BME280;28372;56.832;60.658;2023-01-30T04:56:32;97532.28;;;-2.45;40.81
42727;BME280;28372;56.832;60.658;2023-01-30T04:59:03;97527.97;;;-2.41;41.26
42727;BME280;28372;56.832;60.658;2023-01-30T05:01:37;97542.13;;;-2.31;41.56
42727;BME280;28372;56.832;60.658;2023-01-30T05:04:06;97530.53;;;-2.35;41.53
42727;BME280;28372;56.832;60.658;2023-01-30T05:06:34;97534.97;;;-2.31;41.64
42727;BME280;28372;56.832;60.658;2023-01-30T05:09:04;97528.47;;;-2.25;41.43
42727;BME280;28372;56.832;60.658;2023-01-30T05:11:32;97535.84;;;-2.21;41.40
42727;BME280;28372;56.832;60.658;2023-01-30T05:14:00;97535.44;;;-2.15;41.41
42727;BME280;28372;56.832;60.658;2023-01-30T05:16:28;97539.47;;;-2.03;41.14
42727;BME280;28372;56.832;60.658;2023-01-30T05:18:56;97539.69;;;-1.86;41.08
42727;BME280;28372;56.832;60.658;2023-01-30T05:21:25;97543.47;;;-1.64;41.33
42727;BME280;28372;56.832;60.658;2023-01-30T05:23:56;97544.31;;;-1.41;40.82
42727;BME280;28372;56.832;60.658;2023-01-30T05:26:24;97548.09;;;-1.19;41.48
42727;BME280;28372;56.832;60.658;2023-01-30T05:28:55;97546.91;;;-0.91;41.44
42727;BME280;28372;56.832;60.658;2023-01-30T05:31:23;97541.47;;;-0.63;40.36
42727;BME280;28372;56.832;60.658;2023-01-30T05:33:51;97541.78;;;-0.33;40.20
42727;BME280;28372;56.832;60.658;2023-01-30T05:36:22;97546.44;;;0.02;40.53
42727;BME280;28372;56.832;60.658;2023-01-30T05:38:50;97543.25;;;0.40;39.38
42727;BME280;28372;56.832;60.658;2023-01-30T05:41:20;97533.88;;;0.68;38.52
42727;BME280;28372;56.832;60.658;2023-01-30T05:43:49;97532.66;;;1.10;37.33
42727;BME280;28372;56.832;60.658;2023-01-30T05:46:17;97532.91;;;1.43;37.16
42727;BME280;28372;56.832;60.658;2023-01-30T05:48:46;97536.72;;;1.72;35.98
42727;BME280;28372;56.832;60.658;2023-01-30T05:51:22;97545.25;;;2.04;35.76
42727;BME280;28372;56.832;60.658;2023-01-30T05:53:50;97534.97;;;2.45;35.79
42727;BME280;28372;56.832;60.658;2023-01-30T05:56:18;97541.31;;;2.82;34.95
42727;BME280;28372;56.832;60.658;2023-01-30T05:58:54;97532.34;;;3.20;33.98
42727;BME280;28372;56.832;60.658;2023-01-30T06:01:22;97537.34;;;3.55;33.69
42727;BME280;28372;56.832;60.658;2023-01-30T06:03:50;97536.16;;;3.90;33.09
42727;BME280;28372;56.832;60.658;2023-01-30T06:06:19;97530.72;;;4.23;32.74
42727;BME280;28372;56.832;60.658;2023-01-30T06:08:46;97543.50;;;4.67;32.57
42727;BME280;28372;56.832;60.658;2023-01-30T06:11:15;97550.56;;;5.00;31.82
42727;BME280;28372;56.832;60.658;2023-01-30T06:13:43;97537.66;;;5.18;32.05
42727;BME280;28372;56.832;60.658;2023-01-30T06:16:13;97534.09;;;5.58;30.63
42727;BME280;28372;56.832;60.658;2023-01-30T06:18:41;97543.84;;;6.11;30.26
42727;BME280;28372;56.832;60.658;2023-01-30T06:21:09;97535.28;;;6.57;29.37
42727;BME280;28372;56.832;60.658;2023-01-30T06:23:37;97540.97;;;6.91;28.38
42727;BME280;28372;56.832;60.658;2023-01-30T06:26:05;97539.78;;;7.08;28.34
42727;BME280;28372;56.832;60.658;2023-01-30T06:28:35;97538.50;;;7.21;27.31
42727;BME280;28372;56.832;60.658;2023-01-30T06:31:06;97548.72;;;7.35;27.28
42727;BME280;28372;56.832;60.658;2023-01-30T06:33:34;97538.03;;;7.58;26.06
42727;BME280;28372;56.832;60.658;2023-01-30T06:36:06;97542.16;;;7.75;26.23
42727;BME280;28372;56.832;60.658;2023-01-30T06:38:42;97525.47;;;7.89;26.67
42727;BME280;28372;56.832;60.658;2023-01-30T06:41:09;97525.00;;;8.06;26.47
42727;BME280;28372;56.832;60.658;2023-01-30T06:43:37;97534.69;;;8.38;25.88
42727;BME280;28372;56.832;60.658;2023-01-30T06:46:05;97531.69;;;8.43;26.14
42727;BME280;28372;56.832;60.658;2023-01-30T06:48:32;97528.34;;;8.80;24.99
42727;BME280;28372;56.832;60.658;2023-01-30T06:51:00;97523.22;;;9.02;24.91
42727;BME280;28372;56.832;60.658;2023-01-30T06:53:27;97520.09;;;9.30;25.54
42727;BME280;28372;56.832;60.658;2023-01-30T06:55:58;97526.38;;;9.41;24.69
42727;BME280;28372;56.832;60.658;2023-01-30T06:58:26;97525.53;;;9.75;24.07
42727;BME280;28372;56.832;60.658;2023-01-30T07:00:53;97524.41;;;9.80;23.99
42727;BME280;28372;56.832;60.658;2023-01-30T07:03:21;97529.19;;;9.97;24.15
42727;BME280;28372;56.832;60.658;2023-01-30T07:05:49;97531.97;;;10.08;24.25
42727;BME280;28372;56.832;60.658;2023-01-30T07:08:20;97525.13;;;10.21;23.20
42727;BME280;28372;56.832;60.658;2023-01-30T07:10:50;97528.34;;;10.38;22.47
42727;BME280;28372;56.832;60.658;2023-01-30T07:13:17;97519.50;;;10.44;22.84
42727;BME280;28372;56.832;60.658;2023-01-30T07:15:45;97523.75;;;10.42;22.15
42727;BME280;28372;56.832;60.658;2023-01-30T07:18:13;97527.19;;;10.35;22.25
42727;BME280;28372;56.832;60.658;2023-01-30T07:20:40;97517.44;;;10.27;21.94
42727;BME280;28372;56.832;60.658;2023-01-30T07:23:08;97527.38;;;10.12;22.80
42727;BME280;28372;56.832;60.658;2023-01-30T07:25:36;97525.38;;;10.02;21.98
42727;BME280;28372;56.832;60.658;2023-01-30T07:28:04;97531.97;;;10.04;22.36
42727;BME280;28372;56.832;60.658;2023-01-30T07:30:33;97533.47;;;10.02;22.39
42727;BME280;28372;56.832;60.658;2023-01-30T07:33:04;97524.91;;;9.92;22.52
42727;BME280;28372;56.832;60.658;2023-01-30T07:35:33;97530.63;;;9.84;22.51
42727;BME280;28372;56.832;60.658;2023-01-30T07:38:02;97534.41;;;9.75;22.30
42727;BME280;28372;56.832;60.658;2023-01-30T07:40:30;97536.22;;;9.64;22.37
42727;BME280;28372;56.832;60.658;2023-01-30T07:45:30;97537.25;;;9.52;22.75
42727;BME280;28372;56.832;60.658;2023-01-30T07:48:01;97533.34;;;9.46;22.25
42727;BME280;28372;56.832;60.658;2023-01-30T07:50:28;97530.59;;;9.42;22.46
42727;BME280;28372;56.832;60.658;2023-01-30T07:52:56;97540.88;;;9.30;21.76
42727;BME280;28372;56.832;60.658;2023-01-30T07:55:23;97535.38;;;9.19;22.01
42727;BME280;28372;56.832;60.658;2023-01-30T07:57:51;97530.53;;;9.01;21.19
42727;BME280;28372;56.832;60.658;2023-01-30T08:00:19;97530.28;;;8.80;21.31
42727;BME280;28372;56.832;60.658;2023-01-30T08:02:47;97522.31;;;8.60;22.10
42727;BME280;28372;56.832;60.658;2023-01-30T08:05:15;97522.19;;;8.26;21.73
42727;BME280;28372;56.832;60.658;2023-01-30T08:07:42;97522.53;;;7.98;21.96
42727;BME280;28372;56.832;60.658;2023-01-30T08:10:10;97521.75;;;7.74;22.54
42727;BME280;28372;56.832;60.658;2023-01-30T08:12:39;97533.72;;;7.53;22.74
42727;BME280;28372;56.832;60.658;2023-01-30T08:15:08;97530.53;;;7.48;23.68
42727;BME280;28372;56.832;60.658;2023-01-30T08:17:36;97523.22;;;7.06;23.12
42727;BME280;28372;56.832;60.658;2023-01-30T08:20:04;97523.72;;;6.72;23.31
42727;BME280;28372;56.832;60.658;2023-01-30T08:22:31;97513.44;;;6.42;23.60
42727;BME280;28372;56.832;60.658;2023-01-30T08:24:59;97507.66;;;6.40;24.45
42727;BME280;28372;56.832;60.658;2023-01-30T08:27:29;97508.22;;;6.14;24.73
42727;BME280;28372;56.832;60.658;2023-01-30T08:29:56;97512.38;;;5.95;25.14
42727;BME280;28372;56.832;60.658;2023-01-30T08:32:24;97508.56;;;5.80;25.61
42727;BME280;28372;56.832;60.658;2023-01-30T08:34:54;97505.59;;;5.54;25.86
42727;BME280;28372;56.832;60.658;2023-01-30T08:37:21;97508.34;;;5.25;25.57
42727;BME280;28372;56.832;60.658;2023-01-30T08:39:49;97512.19;;;5.12;25.97
42727;BME280;28372;56.832;60.658;2023-01-30T08:42:16;97511.06;;;4.85;26.16
42727;BME280;28372;56.832;60.658;2023-01-30T08:44:44;97511.94;;;4.60;26.67
42727;BME280;28372;56.832;60.658;2023-01-30T08:47:11;97513.75;;;4.32;26.76
42727;BME280;28372;56.832;60.658;2023-01-30T08:49:39;97510.88;;;4.12;26.94
42727;BME280;28372;56.832;60.658;2023-01-30T08:52:08;97506.66;;;3.99;27.58
42727;BME280;28372;56.832;60.658;2023-01-30T08:54:36;97497.72;;;3.82;27.88
42727;BME280;28372;56.832;60.658;2023-01-30T08:57:04;97498.06;;;3.81;28.01
42727;BME280;28372;56.832;60.658;2023-01-30T08:59:31;97503.50;;;3.59;28.25
42727;BME280;28372;56.832;60.658;2023-01-30T09:01:59;97489.88;;;3.52;28.58
42727;BME280;28372;56.832;60.658;2023-01-30T09:04:28;97491.75;;;3.52;29.04
42727;BME280;28372;56.832;60.658;2023-01-30T09:06:56;97494.28;;;3.23;28.74
42727;BME280;28372;56.832;60.658;2023-01-30T09:09:24;97488.88;;;3.11;29.11
42727;BME280;28372;56.832;60.658;2023-01-30T09:11:51;97486.16;;;2.99;29.56
42727;BME280;28372;56.832;60.658;2023-01-30T09:14:19;97487.50;;;2.92;29.77
42727;BME280;28372;56.832;60.658;2023-01-30T09:16:47;97496.09;;;2.77;29.70
42727;BME280;28372;56.832;60.658;2023-01-30T09:19:25;97498.84;;;2.68;30.05
42727;BME280;28372;56.832;60.658;2023-01-30T09:21:54;97504.78;;;2.53;30.65
42727;BME280;28372;56.832;60.658;2023-01-30T09:24:24;97487.03;;;2.27;30.27
42727;BME280;28372;56.832;60.658;2023-01-30T09:26:59;97499.97;;;2.16;30.80
42727;BME280;28372;56.832;60.658;2023-01-30T09:29:29;97491.94;;;1.95;30.75
42727;BME280;28372;56.832;60.658;2023-01-30T09:31:57;97494.94;;;1.85;31.42
42727;BME280;28372;56.832;60.658;2023-01-30T09:34:26;97489.94;;;1.83;31.66
42727;BME280;28372;56.832;60.658;2023-01-30T09:37:03;97492.16;;;1.81;32.35
42727;BME280;28372;56.832;60.658;2023-01-30T09:40:04;97497.22;;;1.74;31.88
42727;BME280;28372;56.832;60.658;2023-01-30T09:42:54;97508.59;;;1.83;32.13
42727;BME280;28372;56.832;60.658;2023-01-30T09:46:26;97503.91;;;1.80;32.28
42727;BME280;28372;56.832;60.658;2023-01-30T09:55:17;97497.44;;;1.51;32.81
42727;BME280;28372;56.832;60.658;2023-01-30T09:58:02;97505.50;;;1.34;32.73
42727;BME280;28372;56.832;60.658;2023-01-30T10:00:39;97517.91;;;1.21;32.89
42727;BME280;28372;56.832;60.658;2023-01-30T10:17:22;97523.25;;;1.12;33.49
42727;BME280;28372;56.832;60.658;2023-01-30T10:26:52;97518.72;;;0.69;34.00
42727;BME280;28372;56.832;60.658;2023-01-30T10:29:30;97524.97;;;0.73;34.65
42727;BME280;28372;56.832;60.658;2023-01-30T10:32:04;97538.63;;;0.72;33.94
42727;BME280;28372;56.832;60.658;2023-01-30T10:34:37;97536.88;;;0.67;34.69
42727;BME280;28372;56.832;60.658;2023-01-30T10:37:28;97539.84;;;0.57;34.55
42727;BME280;28372;56.832;60.658;2023-01-30T10:43:03;97537.03;;;0.71;35.19
42727;BME280;28372;56.832;60.658;2023-01-30T10:45:53;97527.00;;;0.59;34.55
42727;BME280;28372;56.832;60.658;2023-01-30T10:51:43;97539.97;;;0.51;35.13
42727;BME280;28372;56.832;60.658;2023-01-30T10:54:35;97532.94;;;0.38;35.29
42727;BME280;28372;56.832;60.658;2023-01-30T11:00:00;97544.78;;;0.32;35.31
42727;BME280;28372;56.832;60.658;2023-01-30T11:03:03;97542.75;;;0.20;35.79
42727;BME280;28372;56.832;60.658;2023-01-30T11:05:46;97544.28;;;0.12;36.14
42727;BME280;28372;56.832;60.658;2023-01-30T11:08:29;97546.47;;;0.10;36.30
42727;BME280;28372;56.832;60.658;2023-01-30T11:10:58;97541.13;;;0.02;36.32
42727;BME280;28372;56.832;60.658;2023-01-30T11:13:35;97537.66;;;-0.08;36.37
42727;BME280;28372;56.832;60.658;2023-01-30T11:16:05;97539.25;;;0.02;36.29
42727;BME280;28372;56.832;60.658;2023-01-30T11:18:44;97527.09;;;0.19;35.96
42727;BME280;28372;56.832;60.658;2023-01-30T11:21:33;97543.47;;;0.03;36.18
42727;BME280;28372;56.832;60.658;2023-01-30T11:24:27;97545.66;;;0.01;36.21
42727;BME280;28372;56.832;60.658;2023-01-30T11:27:23;97546.41;;;-0.07;36.81
42727;BME280;28372;56.832;60.658;2023-01-30T11:30:05;97557.13;;;-0.21;36.97
42727;BME280;28372;56.832;60.658;2023-01-30T11:32:33;97555.97;;;-0.38;36.98
42727;BME280;28372;56.832;60.658;2023-01-30T11:37:39;97556.47;;;-0.58;37.66
42727;BME280;28372;56.832;60.658;2023-01-30T11:42:52;97548.47;;;-0.67;37.63
42727;BME280;28372;56.832;60.658;2023-01-30T11:45:24;97555.34;;;-0.66;37.68
42727;BME280;28372;56.832;60.658;2023-01-30T11:48:00;97569.09;;;-0.64;37.97
42727;BME280;28372;56.832;60.658;2023-01-30T11:50:42;97571.16;;;-0.61;38.47
42727;BME280;28372;56.832;60.658;2023-01-30T11:53:41;97565.69;;;-0.64;38.44
42727;BME280;28372;56.832;60.658;2023-01-30T11:56:15;97570.19;;;-0.65;38.48
42727;BME280;28372;56.832;60.658;2023-01-30T11:58:47;97573.63;;;-0.64;37.84
42727;BME280;28372;56.832;60.658;2023-01-30T12:01:30;97578.03;;;-0.60;38.01
42727;BME280;28372;56.832;60.658;2023-01-30T12:03:59;97553.91;;;-0.72;38.13
42727;BME280;28372;56.832;60.658;2023-01-30T12:06:32;97566.34;;;-0.59;37.80
42727;BME280;28372;56.832;60.658;2023-01-30T12:09:00;97565.28;;;-0.72;38.17
42727;BME280;28372;56.832;60.658;2023-01-30T12:14:12;97565.00;;;-0.70;38.13
42727;BME280;28372;56.832;60.658;2023-01-30T12:19:31;97562.63;;;-0.72;39.05
42727;BME280;28372;56.832;60.658;2023-01-30T12:25:20;97565.13;;;-0.75;39.30
42727;BME280;28372;56.832;60.658;2023-01-30T12:28:02;97549.16;;;-0.84;39.44
42727;BME280;28372;56.832;60.658;2023-01-30T12:30:32;97547.00;;;-0.96;39.32
42727;BME280;28372;56.832;60.658;2023-01-30T12:33:04;97558.13;;;-0.94;39.25
42727;BME280;28372;56.832;60.658;2023-01-30T12:41:14;97555.28;;;-0.97;39.44
42727;BME280;28372;56.832;60.658;2023-01-30T12:44:08;97554.97;;;-0.96;39.74
42727;BME280;28372;56.832;60.658;2023-01-30T12:47:06;97542.69;;;-0.92;40.06
42727;BME280;28372;56.832;60.658;2023-01-30T12:58:32;97549.06;;;-0.93;39.07
42727;BME280;28372;56.832;60.658;2023-01-30T13:04:12;97548.78;;;-0.91;39.93
42727;BME280;28372;56.832;60.658;2023-01-30T13:08:01;97545.06;;;-1.04;40.47
42727;BME280;28372;56.832;60.658;2023-01-30T13:12:56;97552.63;;;-0.97;39.28
42727;BME280;28372;56.832;60.658;2023-01-30T13:18:11;97556.97;;;-1.01;39.30
42727;BME280;28372;56.832;60.658;2023-01-30T13:26:23;97555.63;;;-1.13;39.98
42727;BME280;28372;56.832;60.658;2023-01-30T13:28:59;97560.28;;;-1.18;40.66
42727;BME280;28372;56.832;60.658;2023-01-30T13:31:31;97564.00;;;-1.19;40.24
42727;BME280;28372;56.832;60.658;2023-01-30T13:34:09;97562.72;;;-1.22;40.42
42727;BME280;28372;56.832;60.658;2023-01-30T13:36:53;97559.00;;;-1.21;40.73
42727;BME280;28372;56.832;60.658;2023-01-30T13:42:42;97558.59;;;-1.14;39.01
42727;BME280;28372;56.832;60.658;2023-01-30T13:45:51;97556.19;;;-1.25;40.75
42727;BME280;28372;56.832;60.658;2023-01-30T13:56:56;97560.47;;;-1.15;40.75
42727;BME280;28372;56.832;60.658;2023-01-30T14:02:17;97551.16;;;-1.26;40.41
42727;BME280;28372;56.832;60.658;2023-01-30T14:04:58;97549.91;;;-1.29;40.61
42727;BME280;28372;56.832;60.658;2023-01-30T14:07:32;97550.19;;;-1.30;40.70
42727;BME280;28372;56.832;60.658;2023-01-30T14:12:46;97543.91;;;-1.34;40.68
42727;BME280;28372;56.832;60.658;2023-01-30T14:18:12;97555.81;;;-1.32;40.42
42727;BME280;28372;56.832;60.658;2023-01-30T14:20:46;97554.72;;;-1.45;41.00
42727;BME280;28372;56.832;60.658;2023-01-30T14:23:20;97553.28;;;-1.51;41.36
42727;BME280;28372;56.832;60.658;2023-01-30T14:25:53;97542.84;;;-1.47;40.71
42727;BME280;28372;56.832;60.658;2023-01-30T14:30:56;97530.28;;;-1.42;41.17
42727;BME280;28372;56.832;60.658;2023-01-30T14:38:31;97535.28;;;-1.40;40.70
42727;BME280;28372;56.832;60.658;2023-01-30T14:43:47;97538.41;;;-1.38;39.67
42727;BME280;28372;56.832;60.658;2023-01-30T14:49:04;97539.13;;;-1.46;42.04
42727;BME280;28372;56.832;60.658;2023-01-30T14:51:47;97542.59;;;-1.60;42.05
42727;BME280;28372;56.832;60.658;2023-01-30T14:59:48;97547.59;;;-1.58;40.55
42727;BME280;28372;56.832;60.658;2023-01-30T15:02:41;97557.63;;;-1.69;41.39
42727;BME280;28372;56.832;60.658;2023-01-30T15:05:14;97563.13;;;-1.65;41.09
42727;BME280;28372;56.832;60.658;2023-01-30T15:07:48;97555.56;;;-1.72;41.55
42727;BME280;28372;56.832;60.658;2023-01-30T15:21:45;97550.75;;;-1.84;41.39
42727;BME280;28372;56.832;60.658;2023-01-30T15:27:09;97544.09;;;-1.81;40.63
42727;BME280;28372;56.832;60.658;2023-01-30T15:29:54;97549.38;;;-1.81;40.81
42727;BME280;28372;56.832;60.658;2023-01-30T15:32:27;97551.56;;;-1.83;41.07
42727;BME280;28372;56.832;60.658;2023-01-30T15:35:09;97537.19;;;-1.68;40.10
42727;BME280;28372;56.832;60.658;2023-01-30T15:43:40;97545.28;;;-1.87;41.58
42727;BME280;28372;56.832;60.658;2023-01-30T15:51:13;97546.06;;;-2.01;41.12
42727;BME280;28372;56.832;60.658;2023-01-30T15:53:44;97545.19;;;-2.10;41.55
42727;BME280;28372;56.832;60.658;2023-01-30T15:56:19;97543.59;;;-2.11;41.76
42727;BME280;28372;56.832;60.658;2023-01-30T15:58:48;97543.50;;;-2.20;41.47
42727;BME280;28372;56.832;60.658;2023-01-30T16:01:20;97548.81;;;-2.20;41.57
42727;BME280;28372;56.832;60.658;2023-01-30T16:03:49;97539.47;;;-2.31;42.09
42727;BME280;28372;56.832;60.658;2023-01-30T16:06:32;97540.47;;;-2.27;42.20
42727;BME280;28372;56.832;60.658;2023-01-30T16:09:21;97553.31;;;-2.20;41.34
42727;BME280;28372;56.832;60.658;2023-01-30T16:11:49;97544.09;;;-2.37;42.50
42727;BME280;28372;56.832;60.658;2023-01-30T16:14:21;97534.06;;;-2.26;42.29